KAUO

Auburn University Regional Airport

Auburn, Alabama, USA
METAR KAUO 190856Z AUTO 00000KT 10SM CLR 22/20 A2996 RMK AO2 SLP153 T02170200 56004
Observed Flight Rules
Sep-19 @ 08:56 UTC (27 minutes ago) Visual Flight Rules
Visibility Clouds
10 miles
  • Clear skies
Temperatures Readings
Current 22°C / 72°F
Dewpoint 20°C / 68°F
Humidity 88%
Altimeter 29.96" Hg
Pressure 1015.3 hPa
Elevation 236
METAR KAUO 190856Z AUTO 00000KT 10SM CLR 22/20 A2996 RMK AO2 SLP153 T02170200 56004
Observed Flight Rules
Sep-19 @ 08:56 UTC
(27 minutes ago)
VFR
Clouds
  • Clear skies
Temperature Dewpoint
22°C / 72°F 20°C / 68°F
Humidity Altimeter Pressure
88% 29.96" Hg 1015.3 hPa